Time;durP1;ratioP1;P1;durP2;ratioP2;P2;SDS_P1;SDS_P2;PMS_P1;PMS_P2;Temp;Humidity;BMP_temperature;BMP_pressure;BME280_temperature;BME280_humidity;BME280_pressure;Samples;Min_cycle;Max_cycle;Signal;HPM_P1;HPM_P2
2022/07/08 00:01:41;;;;;;;;;;;;;;;16.77;100.00;101650.69;5789247;23;19911;-81
2022/07/08 00:11:53;;;;;;;;;;;;;;;16.77;100.00;101653.41;5717507;23;19925;-83
2022/07/08 00:19:30;;;;;;;;;;;;;;;16.74;100.00;101653.78;5579628;23;19936;-82
2022/07/08 00:21:55;;;;;;;;;;;;;;;16.76;100.00;101650.91;4923225;29;19899;-81
2022/07/08 00:24:21;;;;;;;;;;;;;;;16.79;100.00;101650.47;4906971;29;19991;-81
2022/07/08 00:26:46;;;;;;;;;;;;;;;16.76;100.00;101646.31;4912171;29;19915;-82
2022/07/08 00:29:12;;;;;;;;;;;;;;;16.76;100.00;101634.59;4906998;29;19963;-82
2022/07/08 00:31:38;;;;;;;;;;;;;;;16.75;100.00;101632.91;4907589;29;19966;-81
2022/07/08 00:34:03;;;;;;;;;;;;;;;16.75;100.00;101633.75;4942366;29;19915;-82
2022/07/08 00:36:29;;;;;;;;;;;;;;;16.76;100.00;101626.44;4925888;29;19967;-82
2022/07/08 00:38:55;;;;;;;;;;;;;;;16.76;100.00;101624.56;4906232;29;20266;-82
2022/07/08 00:41:21;;;;;;;;;;;;;;;16.78;100.00;101627.03;4904468;29;19907;-81
2022/07/08 00:43:47;;;;;;;;;;;;;;;16.76;100.00;101623.72;4905746;29;19923;-81
2022/07/08 00:46:13;;;;;;;;;;;;;;;16.76;100.00;101615.56;4907818;29;19922;-82
2022/07/08 00:48:39;;;;;;;;;;;;;;;16.76;100.00;101610.16;4908339;29;19935;-82
2022/07/08 00:51:09;;;;;;;;;;;;;;;16.76;100.00;101612.84;4922938;29;19900;-82
2022/07/08 00:53:35;;;;;;;;;;;;;;;16.75;100.00;101614.72;4906515;29;19906;-82
2022/07/08 00:56:01;;;;;;;;;;;;;;;16.75;100.00;101622.88;4922971;29;19915;-82
2022/07/08 00:58:27;;;;;;;;;;;;;;;16.74;100.00;101623.06;4929375;29;19899;-82
2022/07/08 01:00:53;;;;;;;;;;;;;;;16.72;100.00;101620.59;4926154;29;19927;-82
2022/07/08 01:03:21;;;;;;;;;;;;;;;16.67;100.00;101612.25;4915678;29;19915;-82
2022/07/08 01:05:47;;;;;;;;;;;;;;;16.64;100.00;101621.66;4921722;29;20296;-82
2022/07/08 01:08:12;;;;;;;;;;;;;;;16.62;100.00;101606.63;4924827;29;19975;-81
2022/07/08 01:10:38;;;;;;;;;;;;;;;16.59;100.00;101604.38;4909581;29;19908;-83
2022/07/08 01:13:04;;;;;;;;;;;;;;;16.55;100.00;101603.13;4908141;29;19927;-83
2022/07/08 01:15:31;;;;;;;;;;;;;;;16.48;100.00;101602.34;4935751;23;19935;-82
2022/07/08 01:17:56;;;;;;;;;;;;;;;16.40;100.00;101617.03;4900320;29;19918;-82
2022/07/08 01:20:21;;;;;;;;;;;;;;;16.35;100.00;101616.84;4982620;23;19939;-82
2022/07/08 01:22:47;;;;;;;;;;;;;;;16.32;100.00;101626.25;4997584;23;19961;-81
2022/07/08 01:25:12;;;;;;;;;;;;;;;16.29;100.00;101632.13;4980245;28;19953;-81
2022/07/08 01:27:38;;;;;;;;;;;;;;;16.26;100.00;101629.84;4963783;28;19922;-83
2022/07/08 01:30:04;;;;;;;;;;;;;;;16.34;100.00;101634.19;4981329;28;19922;-83
2022/07/08 01:32:31;;;;;;;;;;;;;;;16.37;100.00;101634.59;4952313;29;19966;-83
2022/07/08 01:34:57;;;;;;;;;;;;;;;16.42;100.00;101631.19;4945042;29;19919;-82
2022/07/08 01:37:23;;;;;;;;;;;;;;;16.42;100.00;101632.06;4962534;29;19930;-83
2022/07/08 01:39:49;;;;;;;;;;;;;;;16.41;100.00;101622.22;4962257;29;19998;-83
2022/07/08 01:42:14;;;;;;;;;;;;;;;16.41;100.00;101621.41;5108726;23;19938;-82
2022/07/08 01:44:40;;;;;;;;;;;;;;;16.37;100.00;101620.19;4963534;29;19958;-82
2022/07/08 01:47:05;;;;;;;;;;;;;;;16.34;100.00;101616.00;4980346;28;19925;-82
2022/07/08 01:49:31;;;;;;;;;;;;;;;16.31;100.00;101612.91;4980678;28;19986;-86
2022/07/08 01:51:56;;;;;;;;;;;;;;;16.26;100.00;101616.28;5329459;23;20951;-82
2022/07/08 01:54:22;;;;;;;;;;;;;;;16.25;100.00;101621.91;4978375;29;19943;-83
2022/07/08 01:56:47;;;;;;;;;;;;;;;16.23;100.00;101616.69;4963422;29;19922;-82
2022/07/08 01:59:12;;;;;;;;;;;;;;;16.24;100.00;101618.34;4961850;29;19907;-82
2022/07/08 02:01:38;;;;;;;;;;;;;;;16.21;100.00;101607.94;4962965;29;19902;-83
2022/07/08 02:04:03;;;;;;;;;;;;;;;16.17;100.00;101598.56;4962210;29;19915;-81
2022/07/08 02:06:31;;;;;;;;;;;;;;;16.13;100.00;101595.44;4963079;29;19907;-82
2022/07/08 02:08:58;;;;;;;;;;;;;;;16.08;100.00;101589.00;4963373;28;19919;-82
2022/07/08 02:14:07;;;;;;;;;;;;;;;16.10;100.00;101592.34;4960756;29;19922;-81
2022/07/08 02:16:33;;;;;;;;;;;;;;;16.08;100.00;101591.72;4943324;29;19911;-83
2022/07/08 02:19:01;;;;;;;;;;;;;;;16.04;100.00;101593.19;4978464;28;19941;-82
2022/07/08 02:21:27;;;;;;;;;;;;;;;16.01;100.00;101601.75;4962381;29;19926;-83
2022/07/08 02:23:52;;;;;;;;;;;;;;;16.01;100.00;101590.91;4978635;28;19934;-81
2022/07/08 02:26:18;;;;;;;;;;;;;;;16.03;100.00;101596.97;4962772;28;19914;-82
2022/07/08 02:28:43;;;;;;;;;;;;;;;16.02;100.00;101600.72;4961061;28;19910;-82
2022/07/08 02:31:08;;;;;;;;;;;;;;;16.03;100.00;101602.41;4964124;29;19907;-82
2022/07/08 02:33:34;;;;;;;;;;;;;;;16.02;100.00;101596.09;4943982;29;19927;-83
2022/07/08 02:35:59;;;;;;;;;;;;;;;16.04;100.00;101587.75;5103792;23;20259;-82
2022/07/08 02:38:25;;;;;;;;;;;;;;;16.04;100.00;101593.19;4961393;29;19915;-81
2022/07/08 02:40:51;;;;;;;;;;;;;;;16.04;100.00;101599.44;4957771;29;19958;-82
2022/07/08 02:43:16;;;;;;;;;;;;;;;16.08;100.00;101600.69;4975677;29;19978;-81
2022/07/08 02:45:42;;;;;;;;;;;;;;;16.11;100.00;101591.28;4961222;29;19914;-82
2022/07/08 02:48:07;;;;;;;;;;;;;;;16.16;100.00;101594.19;4978194;29;19927;-81
2022/07/08 02:50:33;;;;;;;;;;;;;;;16.21;100.00;101594.34;4962240;28;19941;-82
2022/07/08 02:52:58;;;;;;;;;;;;;;;16.30;100.00;101589.50;4955837;29;19927;-81
2022/07/08 02:55:24;;;;;;;;;;;;;;;16.36;100.00;101597.63;4956657;29;20021;-82
2022/07/08 02:57:49;;;;;;;;;;;;;;;16.40;100.00;101600.72;4946468;28;19930;-82
2022/07/08 03:00:15;;;;;;;;;;;;;;;16.43;100.00;101597.56;4963525;29;20024;-81
2022/07/08 03:02:40;;;;;;;;;;;;;;;16.47;100.00;101595.25;4977317;28;19907;-82
2022/07/08 03:05:06;;;;;;;;;;;;;;;16.53;100.00;101599.81;4963083;28;19915;-82
2022/07/08 03:10:03;;;;;;;;;;;;;;;16.59;100.00;101596.22;5801306;23;19935;-80
2022/07/08 03:12:44;;;;;;;;;;;;;;;16.61;100.00;101591.38;5323549;23;19975;31
2022/07/08 03:15:13;;;;;;;;;;;;;;;16.64;100.00;101585.50;4938353;29;19912;-81
2022/07/08 03:17:38;;;;;;;;;;;;;;;16.64;100.00;101588.22;4925150;29;19911;-79
2022/07/08 03:20:05;;;;;;;;;;;;;;;16.70;100.00;101592.78;4921426;29;19919;-81
2022/07/08 03:22:31;;;;;;;;;;;;;;;16.80;100.00;101581.47;4906514;29;19974;-81
2022/07/08 03:24:56;;;;;;;;;;;;;;;16.83;100.00;101592.72;4923224;29;19922;-82
2022/07/08 03:27:21;;;;;;;;;;;;;;;16.91;100.00;101587.00;4923648;29;19908;-81
2022/07/08 03:29:47;;;;;;;;;;;;;;;17.06;100.00;101592.09;4924622;29;19907;-83
2022/07/08 03:34:48;;;;;;;;;;;;;;;17.37;100.00;101593.88;5371177;23;19932;-81
2022/07/08 03:57:54;;;;;;;;;;;;;;;18.15;100.00;101583.38;5879224;23;19940;-83
2022/07/08 04:15:50;;;;;;;;;;;;;;;18.23;100.00;101608.41;5621239;23;19927;-81
2022/07/08 04:18:16;;;;;;;;;;;;;;;18.12;100.00;101630.97;4943161;29;19994;-82
2022/07/08 04:20:41;;;;;;;;;;;;;;;18.02;100.00;101625.25;4940602;29;19931;-80
2022/07/08 04:23:07;;;;;;;;;;;;;;;17.88;100.00;101635.47;4925282;29;19916;-81
2022/07/08 04:25:32;;;;;;;;;;;;;;;17.81;100.00;101634.69;4924210;29;19998;-79
2022/07/08 04:27:57;;;;;;;;;;;;;;;17.70;100.00;101649.84;4922804;29;19918;-80
2022/07/08 04:30:23;;;;;;;;;;;;;;;17.56;100.00;101640.19;4940136;29;19918;-82
2022/07/08 04:32:49;;;;;;;;;;;;;;;17.47;100.00;101639.63;4939874;29;19974;-82
2022/07/08 04:35:15;;;;;;;;;;;;;;;17.46;100.00;101650.75;4939343;29;19943;-81
2022/07/08 04:37:40;;;;;;;;;;;;;;;17.49;100.00;101647.59;4907824;29;19919;-83
2022/07/08 04:40:06;;;;;;;;;;;;;;;17.76;100.00;101650.84;4928875;29;19947;-82
2022/07/08 04:47:42;;;;;;;;;;;;;;;17.77;100.00;101677.03;5040557;23;19911;-82
2022/07/08 04:50:08;;;;;;;;;;;;;;;17.78;100.00;101668.66;4942157;29;19931;-82
2022/07/08 04:52:33;;;;;;;;;;;;;;;17.78;100.00;101654.19;4957634;29;19903;-82
2022/07/08 04:54:58;;;;;;;;;;;;;;;17.86;97.24;101678.41;4963830;29;19926;-82
2022/07/08 04:57:24;;;;;;;;;;;;;;;18.20;94.71;101674.22;4961420;28;19950;-82
2022/07/08 04:59:49;;;;;;;;;;;;;;;19.14;90.03;101676.47;4961386;29;19923;-81
2022/07/08 05:02:15;;;;;;;;;;;;;;;19.48;88.42;101670.25;4924990;29;19923;-82
2022/07/08 05:04:41;;;;;;;;;;;;;;;19.30;89.06;101686.72;4944134;29;19927;-82
2022/07/08 05:07:06;;;;;;;;;;;;;;;18.84;91.08;101679.25;4944313;29;19949;-82
2022/07/08 05:09:32;;;;;;;;;;;;;;;18.58;91.65;101686.75;4967569;28;19988;-81
2022/07/08 05:12:02;;;;;;;;;;;;;;;18.42;92.33;101679.22;4960323;29;19962;-82
2022/07/08 05:14:28;;;;;;;;;;;;;;;18.52;95.78;101687.66;4944725;29;20084;-82
2022/07/08 05:16:53;;;;;;;;;;;;;;;18.45;90.64;101679.59;4959361;29;19934;-82
2022/07/08 05:19:19;;;;;;;;;;;;;;;18.65;87.91;101670.31;4944802;29;19978;-82
2022/07/08 05:21:44;;;;;;;;;;;;;;;18.94;83.35;101674.94;4945242;29;19907;-82
2022/07/08 05:24:09;;;;;;;;;;;;;;;19.38;83.11;101669.16;5314744;23;19927;-82
2022/07/08 05:26:35;;;;;;;;;;;;;;;19.35;79.54;101681.38;4932445;29;19994;-82
2022/07/08 05:29:01;;;;;;;;;;;;;;;19.28;78.94;101672.47;4937923;29;19907;-82
2022/07/08 05:31:26;;;;;;;;;;;;;;;19.54;79.67;101679.38;4906394;29;19983;-81
2022/07/08 05:33:52;;;;;;;;;;;;;;;19.74;79.67;101684.50;4903243;29;19916;-80
2022/07/08 05:36:18;;;;;;;;;;;;;;;19.64;79.86;101682.38;4920742;29;19928;-79
2022/07/08 05:38:44;;;;;;;;;;;;;;;19.66;82.97;101674.75;4922609;29;19924;-81
2022/07/08 05:41:10;;;;;;;;;;;;;;;19.62;81.66;101681.75;4903585;29;19915;-80
2022/07/08 05:43:35;;;;;;;;;;;;;;;19.64;83.86;101685.09;4901549;29;19931;-80
2022/07/08 05:46:00;;;;;;;;;;;;;;;19.64;83.81;101690.56;4904677;29;19979;-82
2022/07/08 05:48:28;;;;;;;;;;;;;;;19.48;80.41;101681.16;4923061;29;19907;-83
2022/07/08 05:50:55;;;;;;;;;;;;;;;19.33;79.47;101694.44;4920386;29;20014;-81
2022/07/08 05:53:21;;;;;;;;;;;;;;;19.44;82.30;101707.28;4904296;29;19903;-81
2022/07/08 05:55:48;;;;;;;;;;;;;;;19.35;85.06;101714.13;4899702;29;19944;-80
2022/07/08 05:58:14;;;;;;;;;;;;;;;19.22;89.70;101711.63;4896404;29;19916;-83
2022/07/08 06:00:39;;;;;;;;;;;;;;;19.08;94.60;101707.44;4890820;29;19919;-79
2022/07/08 06:03:05;;;;;;;;;;;;;;;18.96;92.58;101705.50;4921636;29;19927;-83
2022/07/08 06:05:33;;;;;;;;;;;;;;;18.92;91.36;101709.78;4923957;29;19941;-83
2022/07/08 06:07:58;;;;;;;;;;;;;;;18.92;90.63;101708.94;4905688;29;19911;-81
2022/07/08 06:10:26;;;;;;;;;;;;;;;18.96;93.87;101710.13;4903753;29;19923;-81
2022/07/08 06:12:53;;;;;;;;;;;;;;;18.95;96.76;101724.84;5252000;23;19934;-81
2022/07/08 06:15:19;;;;;;;;;;;;;;;18.95;96.00;101716.66;4982694;28;19922;-85
2022/07/08 06:17:44;;;;;;;;;;;;;;;18.87;93.74;101706.91;5011331;23;19951;-80
2022/07/08 06:20:10;;;;;;;;;;;;;;;18.88;92.45;101719.50;4959009;29;19907;-83
2022/07/08 06:22:35;;;;;;;;;;;;;;;18.82;90.87;101719.59;4942369;29;19906;-83
2022/07/08 06:25:01;;;;;;;;;;;;;;;18.87;91.94;101725.16;4941400;29;19921;-82
2022/07/08 06:27:26;;;;;;;;;;;;;;;18.84;94.90;101731.06;4922780;29;19950;-81
2022/07/08 06:29:52;;;;;;;;;;;;;;;18.84;91.40;101731.94;4917761;29;19930;-80
2022/07/08 06:32:17;;;;;;;;;;;;;;;18.93;91.74;101738.69;4959422;29;19970;-82
2022/07/08 06:34:46;;;;;;;;;;;;;;;18.82;91.15;101725.03;4941372;29;19911;-82
2022/07/08 06:37:11;;;;;;;;;;;;;;;18.83;91.49;101740.31;4956985;29;20009;-81
2022/07/08 06:39:37;;;;;;;;;;;;;;;18.85;91.13;101744.50;4939625;29;19915;-82
2022/07/08 06:42:02;;;;;;;;;;;;;;;18.87;89.14;101736.06;4942867;29;19919;-82
2022/07/08 06:44:28;;;;;;;;;;;;;;;18.90;89.21;101739.16;4959534;28;19954;-81
2022/07/08 06:46:53;;;;;;;;;;;;;;;18.91;90.30;101745.47;4958438;29;19955;-80
2022/07/08 06:49:19;;;;;;;;;;;;;;;18.88;90.66;101737.75;4956522;29;19914;-82
2022/07/08 06:51:44;;;;;;;;;;;;;;;18.95;89.64;101742.03;4958255;29;19905;-82
2022/07/08 06:56:55;;;;;;;;;;;;;;;19.09;92.46;101750.03;4953315;29;20461;-81
2022/07/08 06:59:20;;;;;;;;;;;;;;;18.99;88.23;101745.13;4953490;29;19919;-81
2022/07/08 07:01:46;;;;;;;;;;;;;;;19.12;89.85;101757.75;4936435;29;19931;-80
2022/07/08 07:04:11;;;;;;;;;;;;;;;19.19;89.90;101751.13;4958352;29;19933;-81
2022/07/08 07:06:38;;;;;;;;;;;;;;;19.16;88.76;101751.59;4931263;29;19926;-80
2022/07/08 07:09:03;;;;;;;;;;;;;;;19.22;88.94;101744.38;4936562;29;20300;-81
2022/07/08 07:11:28;;;;;;;;;;;;;;;19.23;89.20;101759.66;4949779;29;19919;-80
2022/07/08 07:13:54;;;;;;;;;;;;;;;19.20;89.08;101747.34;4929391;29;19915;-79
2022/07/08 07:16:19;;;;;;;;;;;;;;;19.24;89.28;101754.00;4934133;29;20364;-79
2022/07/08 07:18:44;;;;;;;;;;;;;;;19.20;89.57;101755.53;4928291;29;19993;-79
2022/07/08 07:21:09;;;;;;;;;;;;;;;19.31;90.61;101756.63;4931339;29;19922;-81
2022/07/08 07:23:36;;;;;;;;;;;;;;;19.19;90.30;101753.84;4943777;29;19918;-79
2022/07/08 07:26:01;;;;;;;;;;;;;;;19.02;91.76;101766.50;4934630;29;19919;-80
2022/07/08 07:28:27;;;;;;;;;;;;;;;18.96;91.58;101761.97;4934619;29;19919;-79
